Macedonia, Iowa
Current Conditions -  °F | °C
As of 1:55 AM on Thursday 23 Oct 2014 (Local Time) from KRDK Reporting Station
Overcast Overcast  
Wind Chill: 59°   Ceiling: 800
Heat Index: 59°   Visibility: 9mi
Dew Point: 57°   Wind: 8mph
Humidity: 94%   Direction: 140°SE
Pressure: 30.05"   Gusts: NA
Location:  41.19°N, 95.43°W
Report Text: KRDK 230655Z AUTO 14007KT 9SM OVC008 15/14 A3005 RMK AO2 P0002
Loading
Personal Weather Stations






























Interactive Weather Map
Tropical Storm Tracking
New forecast layout! Learn more

10-Day Weather Forecast

Advertisements
Track Severe Weather on mobile